sensor_id;sensor_type;location;lat;lon;timestamp;P1;durP1;ratioP1;P2;durP2;ratioP2
48743;SDS011;34538;48.836;9.174;2023-09-08T00:00:22;10.50;;;6.55;;
48743;SDS011;34538;48.836;9.174;2023-09-08T00:02:49;10.63;;;6.43;;
48743;SDS011;34538;48.836;9.174;2023-09-08T00:05:16;11.50;;;6.70;;
48743;SDS011;34538;48.836;9.174;2023-09-08T00:07:43;9.90;;;6.63;;
48743;SDS011;34538;48.836;9.174;2023-09-08T00:10:11;11.23;;;6.50;;
48743;SDS011;34538;48.836;9.174;2023-09-08T00:12:37;11.57;;;7.35;;
48743;SDS011;34538;48.836;9.174;2023-09-08T00:15:05;11.13;;;6.72;;
48743;SDS011;34538;48.836;9.174;2023-09-08T00:17:32;11.73;;;7.45;;
48743;SDS011;34538;48.836;9.174;2023-09-08T00:19:59;10.55;;;6.93;;
48743;SDS011;34538;48.836;9.174;2023-09-08T00:22:26;11.82;;;7.18;;
48743;SDS011;34538;48.836;9.174;2023-09-08T00:24:53;11.27;;;7.40;;
48743;SDS011;34538;48.836;9.174;2023-09-08T00:27:21;9.90;;;6.88;;
48743;SDS011;34538;48.836;9.174;2023-09-08T00:29:48;10.82;;;7.00;;
48743;SDS011;34538;48.836;9.174;2023-09-08T00:32:15;10.32;;;6.95;;
48743;SDS011;34538;48.836;9.174;2023-09-08T00:34:43;13.60;;;7.57;;
48743;SDS011;34538;48.836;9.174;2023-09-08T00:37:10;10.27;;;7.03;;
48743;SDS011;34538;48.836;9.174;2023-09-08T00:39:38;9.85;;;6.97;;
48743;SDS011;34538;48.836;9.174;2023-09-08T00:42:05;11.40;;;7.43;;
48743;SDS011;34538;48.836;9.174;2023-09-08T00:44:34;10.18;;;6.97;;
48743;SDS011;34538;48.836;9.174;2023-09-08T00:47:01;10.95;;;6.22;;
48743;SDS011;34538;48.836;9.174;2023-09-08T00:49:28;11.00;;;7.18;;
48743;SDS011;34538;48.836;9.174;2023-09-08T00:51:55;11.43;;;7.50;;
48743;SDS011;34538;48.836;9.174;2023-09-08T00:54:22;13.70;;;7.57;;
48743;SDS011;34538;48.836;9.174;2023-09-08T00:56:49;10.63;;;7.00;;
48743;SDS011;34538;48.836;9.174;2023-09-08T00:59:21;10.82;;;7.35;;
48743;SDS011;34538;48.836;9.174;2023-09-08T01:01:51;11.45;;;7.55;;
48743;SDS011;34538;48.836;9.174;2023-09-08T01:04:20;10.80;;;7.53;;
48743;SDS011;34538;48.836;9.174;2023-09-08T01:06:47;10.98;;;7.13;;
48743;SDS011;34538;48.836;9.174;2023-09-08T01:09:14;12.80;;;7.90;;
48743;SDS011;34538;48.836;9.174;2023-09-08T01:11:41;11.00;;;6.57;;
48743;SDS011;34538;48.836;9.174;2023-09-08T01:14:10;10.90;;;7.03;;
48743;SDS011;34538;48.836;9.174;2023-09-08T01:16:38;9.80;;;6.65;;
48743;SDS011;34538;48.836;9.174;2023-09-08T01:19:09;11.73;;;7.25;;
48743;SDS011;34538;48.836;9.174;2023-09-08T01:21:46;11.32;;;7.47;;
48743;SDS011;34538;48.836;9.174;2023-09-08T01:24:33;10.63;;;7.25;;
48743;SDS011;34538;48.836;9.174;2023-09-08T01:27:14;10.98;;;7.07;;
48743;SDS011;34538;48.836;9.174;2023-09-08T01:29:43;12.75;;;7.22;;
48743;SDS011;34538;48.836;9.174;2023-09-08T01:32:12;10.45;;;7.22;;
48743;SDS011;34538;48.836;9.174;2023-09-08T01:34:39;10.80;;;7.10;;
48743;SDS011;34538;48.836;9.174;2023-09-08T01:37:06;13.63;;;7.45;;
48743;SDS011;34538;48.836;9.174;2023-09-08T01:39:33;12.07;;;7.88;;
48743;SDS011;34538;48.836;9.174;2023-09-08T01:42:00;13.55;;;7.50;;
48743;SDS011;34538;48.836;9.174;2023-09-08T01:44:29;9.70;;;7.18;;
48743;SDS011;34538;48.836;9.174;2023-09-08T01:46:56;12.65;;;7.95;;
48743;SDS011;34538;48.836;9.174;2023-09-08T01:49:23;14.43;;;8.02;;
48743;SDS011;34538;48.836;9.174;2023-09-08T01:51:50;12.52;;;8.02;;
48743;SDS011;34538;48.836;9.174;2023-09-08T01:54:18;12.85;;;8.60;;
48743;SDS011;34538;48.836;9.174;2023-09-08T01:56:44;11.50;;;7.18;;
48743;SDS011;34538;48.836;9.174;2023-09-08T01:59:11;11.63;;;7.80;;
48743;SDS011;34538;48.836;9.174;2023-09-08T02:01:40;13.35;;;7.97;;
48743;SDS011;34538;48.836;9.174;2023-09-08T02:04:07;11.20;;;7.78;;
48743;SDS011;34538;48.836;9.174;2023-09-08T02:06:34;11.40;;;7.25;;
48743;SDS011;34538;48.836;9.174;2023-09-08T02:09:01;11.48;;;7.78;;
48743;SDS011;34538;48.836;9.174;2023-09-08T02:11:28;13.30;;;7.97;;
48743;SDS011;34538;48.836;9.174;2023-09-08T02:13:56;11.63;;;7.75;;
48743;SDS011;34538;48.836;9.174;2023-09-08T02:16:22;12.77;;;7.63;;
48743;SDS011;34538;48.836;9.174;2023-09-08T02:18:51;13.68;;;7.97;;
48743;SDS011;34538;48.836;9.174;2023-09-08T02:21:18;11.77;;;7.75;;
48743;SDS011;34538;48.836;9.174;2023-09-08T02:23:45;16.25;;;9.02;;
48743;SDS011;34538;48.836;9.174;2023-09-08T02:26:12;14.02;;;8.80;;
48743;SDS011;34538;48.836;9.174;2023-09-08T02:28:39;14.23;;;8.68;;
48743;SDS011;34538;48.836;9.174;2023-09-08T02:31:06;11.73;;;8.52;;
48743;SDS011;34538;48.836;9.174;2023-09-08T02:33:33;14.02;;;8.98;;
48743;SDS011;34538;48.836;9.174;2023-09-08T02:36:05;13.68;;;9.02;;
48743;SDS011;34538;48.836;9.174;2023-09-08T02:38:33;14.43;;;9.35;;
48743;SDS011;34538;48.836;9.174;2023-09-08T02:41:01;11.90;;;8.38;;
48743;SDS011;34538;48.836;9.174;2023-09-08T02:43:28;13.52;;;9.00;;
48743;SDS011;34538;48.836;9.174;2023-09-08T02:45:56;13.82;;;8.43;;
48743;SDS011;34538;48.836;9.174;2023-09-08T02:48:24;13.52;;;9.38;;
48743;SDS011;34538;48.836;9.174;2023-09-08T02:50:51;14.32;;;8.80;;
48743;SDS011;34538;48.836;9.174;2023-09-08T02:53:20;16.20;;;9.73;;
48743;SDS011;34538;48.836;9.174;2023-09-08T02:55:47;13.02;;;9.25;;
48743;SDS011;34538;48.836;9.174;2023-09-08T02:58:13;11.85;;;8.45;;
48743;SDS011;34538;48.836;9.174;2023-09-08T03:00:40;17.55;;;9.27;;
48743;SDS011;34538;48.836;9.174;2023-09-08T03:03:07;13.48;;;8.48;;
48743;SDS011;34538;48.836;9.174;2023-09-08T03:05:34;15.43;;;8.32;;
48743;SDS011;34538;48.836;9.174;2023-09-08T03:08:02;14.07;;;8.63;;
48743;SDS011;34538;48.836;9.174;2023-09-08T03:10:32;12.27;;;7.88;;
48743;SDS011;34538;48.836;9.174;2023-09-08T03:13:00;13.85;;;8.73;;
48743;SDS011;34538;48.836;9.174;2023-09-08T03:15:27;12.02;;;7.95;;
48743;SDS011;34538;48.836;9.174;2023-09-08T03:17:54;14.75;;;9.13;;
48743;SDS011;34538;48.836;9.174;2023-09-08T03:20:21;13.93;;;8.35;;
48743;SDS011;34538;48.836;9.174;2023-09-08T03:22:48;13.35;;;8.10;;
48743;SDS011;34538;48.836;9.174;2023-09-08T03:25:15;12.02;;;7.72;;
48743;SDS011;34538;48.836;9.174;2023-09-08T03:27:44;11.40;;;7.88;;
48743;SDS011;34538;48.836;9.174;2023-09-08T03:30:11;11.90;;;8.25;;
48743;SDS011;34538;48.836;9.174;2023-09-08T03:32:38;15.48;;;8.35;;
48743;SDS011;34538;48.836;9.174;2023-09-08T03:35:06;13.32;;;8.23;;
48743;SDS011;34538;48.836;9.174;2023-09-08T03:37:35;13.95;;;8.30;;
48743;SDS011;34538;48.836;9.174;2023-09-08T03:40:04;14.90;;;9.48;;
48743;SDS011;34538;48.836;9.174;2023-09-08T03:42:32;14.02;;;8.82;;
48743;SDS011;34538;48.836;9.174;2023-09-08T03:45:01;13.68;;;9.13;;
48743;SDS011;34538;48.836;9.174;2023-09-08T03:47:28;12.38;;;8.85;;
48743;SDS011;34538;48.836;9.174;2023-09-08T03:49:55;13.57;;;8.65;;
48743;SDS011;34538;48.836;9.174;2023-09-08T03:52:23;16.30;;;9.38;;
48743;SDS011;34538;48.836;9.174;2023-09-08T03:54:50;13.45;;;8.40;;
48743;SDS011;34538;48.836;9.174;2023-09-08T03:57:17;15.00;;;8.63;;
48743;SDS011;34538;48.836;9.174;2023-09-08T03:59:44;15.35;;;8.77;;
48743;SDS011;34538;48.836;9.174;2023-09-08T04:02:12;14.18;;;8.70;;
48743;SDS011;34538;48.836;9.174;2023-09-08T04:04:39;13.65;;;8.95;;
48743;SDS011;34538;48.836;9.174;2023-09-08T04:07:07;12.23;;;9.02;;
48743;SDS011;34538;48.836;9.174;2023-09-08T04:09:35;15.48;;;9.45;;
48743;SDS011;34538;48.836;9.174;2023-09-08T04:12:02;17.85;;;10.13;;
48743;SDS011;34538;48.836;9.174;2023-09-08T04:14:30;14.90;;;9.18;;
48743;SDS011;34538;48.836;9.174;2023-09-08T04:16:59;14.88;;;9.57;;
48743;SDS011;34538;48.836;9.174;2023-09-08T04:19:28;14.05;;;9.63;;
48743;SDS011;34538;48.836;9.174;2023-09-08T04:21:55;19.20;;;9.85;;
48743;SDS011;34538;48.836;9.174;2023-09-08T04:24:22;15.55;;;9.60;;
48743;SDS011;34538;48.836;9.174;2023-09-08T04:26:49;14.90;;;10.10;;
48743;SDS011;34538;48.836;9.174;2023-09-08T04:29:15;16.42;;;9.57;;
48743;SDS011;34538;48.836;9.174;2023-09-08T04:31:42;15.20;;;9.65;;
48743;SDS011;34538;48.836;9.174;2023-09-08T04:34:09;13.55;;;8.80;;
48743;SDS011;34538;48.836;9.174;2023-09-08T04:36:38;14.68;;;9.18;;
48743;SDS011;34538;48.836;9.174;2023-09-08T04:39:05;16.08;;;9.70;;
48743;SDS011;34538;48.836;9.174;2023-09-08T04:41:36;15.15;;;9.00;;
48743;SDS011;34538;48.836;9.174;2023-09-08T04:44:03;16.13;;;9.77;;
48743;SDS011;34538;48.836;9.174;2023-09-08T04:46:31;15.90;;;9.05;;
48743;SDS011;34538;48.836;9.174;2023-09-08T04:48:58;17.52;;;10.15;;
48743;SDS011;34538;48.836;9.174;2023-09-08T04:51:25;15.77;;;9.70;;
48743;SDS011;34538;48.836;9.174;2023-09-08T04:53:53;15.15;;;9.80;;
48743;SDS011;34538;48.836;9.174;2023-09-08T04:56:21;14.10;;;9.68;;
48743;SDS011;34538;48.836;9.174;2023-09-08T04:58:48;17.70;;;10.75;;
48743;SDS011;34538;48.836;9.174;2023-09-08T05:01:15;13.65;;;9.43;;
48743;SDS011;34538;48.836;9.174;2023-09-08T05:03:42;15.30;;;9.68;;
48743;SDS011;34538;48.836;9.174;2023-09-08T05:06:09;16.05;;;10.70;;
48743;SDS011;34538;48.836;9.174;2023-09-08T05:08:36;13.40;;;8.73;;
48743;SDS011;34538;48.836;9.174;2023-09-08T05:11:04;14.98;;;10.02;;
48743;SDS011;34538;48.836;9.174;2023-09-08T05:13:31;16.05;;;10.25;;
48743;SDS011;34538;48.836;9.174;2023-09-08T05:16:01;15.35;;;9.98;;
48743;SDS011;34538;48.836;9.174;2023-09-08T05:18:37;16.75;;;10.07;;
48743;SDS011;34538;48.836;9.174;2023-09-08T05:21:04;16.40;;;9.73;;
48743;SDS011;34538;48.836;9.174;2023-09-08T05:23:31;16.25;;;10.30;;
48743;SDS011;34538;48.836;9.174;2023-09-08T05:25:59;18.45;;;10.60;;
48743;SDS011;34538;48.836;9.174;2023-09-08T05:28:28;17.45;;;10.02;;
48743;SDS011;34538;48.836;9.174;2023-09-08T05:30:55;16.58;;;10.00;;
48743;SDS011;34538;48.836;9.174;2023-09-08T05:33:22;18.77;;;10.13;;
48743;SDS011;34538;48.836;9.174;2023-09-08T05:35:53;17.08;;;9.48;;
48743;SDS011;34538;48.836;9.174;2023-09-08T05:38:20;15.75;;;10.18;;
48743;SDS011;34538;48.836;9.174;2023-09-08T05:40:47;18.10;;;10.02;;
48743;SDS011;34538;48.836;9.174;2023-09-08T05:43:14;15.10;;;9.90;;
48743;SDS011;34538;48.836;9.174;2023-09-08T05:45:42;15.80;;;9.50;;
48743;SDS011;34538;48.836;9.174;2023-09-08T05:48:10;18.20;;;10.20;;
48743;SDS011;34538;48.836;9.174;2023-09-08T05:50:37;15.07;;;9.60;;
48743;SDS011;34538;48.836;9.174;2023-09-08T05:53:05;17.10;;;10.35;;
48743;SDS011;34538;48.836;9.174;2023-09-08T05:55:33;16.90;;;10.32;;
48743;SDS011;34538;48.836;9.174;2023-09-08T05:58:00;15.93;;;10.30;;
48743;SDS011;34538;48.836;9.174;2023-09-08T06:00:28;15.60;;;10.00;;
48743;SDS011;34538;48.836;9.174;2023-09-08T06:02:56;13.18;;;9.23;;
48743;SDS011;34538;48.836;9.174;2023-09-08T06:05:23;16.58;;;9.93;;
48743;SDS011;34538;48.836;9.174;2023-09-08T06:07:50;17.13;;;9.85;;
48743;SDS011;34538;48.836;9.174;2023-09-08T06:10:17;15.27;;;9.90;;
48743;SDS011;34538;48.836;9.174;2023-09-08T06:12:44;14.77;;;9.13;;
48743;SDS011;34538;48.836;9.174;2023-09-08T06:15:11;16.10;;;9.32;;
48743;SDS011;34538;48.836;9.174;2023-09-08T06:17:39;13.85;;;8.55;;
48743;SDS011;34538;48.836;9.174;2023-09-08T06:20:08;17.88;;;9.20;;
48743;SDS011;34538;48.836;9.174;2023-09-08T06:22:36;15.60;;;8.15;;
48743;SDS011;34538;48.836;9.174;2023-09-08T06:25:03;14.20;;;8.13;;
48743;SDS011;34538;48.836;9.174;2023-09-08T06:27:34;15.65;;;8.35;;
48743;SDS011;34538;48.836;9.174;2023-09-08T06:30:02;16.52;;;7.18;;
48743;SDS011;34538;48.836;9.174;2023-09-08T06:32:32;12.73;;;7.28;;
48743;SDS011;34538;48.836;9.174;2023-09-08T06:34:59;10.77;;;7.20;;
48743;SDS011;34538;48.836;9.174;2023-09-08T06:37:28;11.00;;;7.10;;
48743;SDS011;34538;48.836;9.174;2023-09-08T06:39:55;11.18;;;7.32;;
48743;SDS011;34538;48.836;9.174;2023-09-08T06:42:22;11.10;;;7.00;;
48743;SDS011;34538;48.836;9.174;2023-09-08T06:44:56;13.23;;;7.30;;
48743;SDS011;34538;48.836;9.174;2023-09-08T06:47:23;12.90;;;7.13;;
48743;SDS011;34538;48.836;9.174;2023-09-08T06:49:50;12.60;;;7.28;;
48743;SDS011;34538;48.836;9.174;2023-09-08T06:52:17;10.15;;;6.63;;
48743;SDS011;34538;48.836;9.174;2023-09-08T06:54:45;11.30;;;6.55;;
48743;SDS011;34538;48.836;9.174;2023-09-08T06:57:12;12.95;;;7.60;;
48743;SDS011;34538;48.836;9.174;2023-09-08T06:59:40;12.98;;;7.13;;
48743;SDS011;34538;48.836;9.174;2023-09-08T07:02:06;10.10;;;7.07;;
48743;SDS011;34538;48.836;9.174;2023-09-08T07:04:33;11.30;;;6.75;;
48743;SDS011;34538;48.836;9.174;2023-09-08T07:07:00;12.18;;;8.02;;
48743;SDS011;34538;48.836;9.174;2023-09-08T07:09:32;13.25;;;7.70;;
48743;SDS011;34538;48.836;9.174;2023-09-08T07:12:01;11.20;;;7.00;;
48743;SDS011;34538;48.836;9.174;2023-09-08T07:14:28;13.15;;;7.95;;
48743;SDS011;34538;48.836;9.174;2023-09-08T07:16:55;10.23;;;6.82;;
48743;SDS011;34538;48.836;9.174;2023-09-08T07:19:22;11.32;;;6.65;;
48743;SDS011;34538;48.836;9.174;2023-09-08T07:21:50;11.73;;;7.22;;
48743;SDS011;34538;48.836;9.174;2023-09-08T07:24:17;10.45;;;6.85;;
48743;SDS011;34538;48.836;9.174;2023-09-08T07:26:44;11.38;;;6.32;;
48743;SDS011;34538;48.836;9.174;2023-09-08T07:29:12;12.65;;;6.13;;
48743;SDS011;34538;48.836;9.174;2023-09-08T07:31:39;12.93;;;5.97;;
48743;SDS011;34538;48.836;9.174;2023-09-08T07:34:06;10.48;;;6.95;;
48743;SDS011;34538;48.836;9.174;2023-09-08T07:36:33;9.30;;;6.20;;
48743;SDS011;34538;48.836;9.174;2023-09-08T07:39:01;12.00;;;6.50;;
48743;SDS011;34538;48.836;9.174;2023-09-08T07:41:28;10.18;;;6.38;;
48743;SDS011;34538;48.836;9.174;2023-09-08T07:43:55;8.88;;;5.80;;
48743;SDS011;34538;48.836;9.174;2023-09-08T07:46:25;9.63;;;6.18;;
48743;SDS011;34538;48.836;9.174;2023-09-08T07:48:52;11.40;;;5.75;;
48743;SDS011;34538;48.836;9.174;2023-09-08T07:51:19;9.38;;;6.15;;
48743;SDS011;34538;48.836;9.174;2023-09-08T07:53:46;9.32;;;6.13;;
48743;SDS011;34538;48.836;9.174;2023-09-08T07:56:13;7.78;;;5.63;;
48743;SDS011;34538;48.836;9.174;2023-09-08T07:58:40;8.52;;;5.90;;
48743;SDS011;34538;48.836;9.174;2023-09-08T08:01:07;9.55;;;5.75;;
48743;SDS011;34538;48.836;9.174;2023-09-08T08:03:35;10.75;;;6.10;;
48743;SDS011;34538;48.836;9.174;2023-09-08T08:06:02;10.55;;;6.18;;
48743;SDS011;34538;48.836;9.174;2023-09-08T08:08:30;8.93;;;5.97;;
48743;SDS011;34538;48.836;9.174;2023-09-08T08:10:57;8.48;;;5.53;;
48743;SDS011;34538;48.836;9.174;2023-09-08T08:13:24;9.13;;;6.28;;
48743;SDS011;34538;48.836;9.174;2023-09-08T08:15:52;8.15;;;5.47;;
48743;SDS011;34538;48.836;9.174;2023-09-08T08:18:19;7.85;;;5.85;;
48743;SDS011;34538;48.836;9.174;2023-09-08T08:20:47;9.85;;;5.38;;
48743;SDS011;34538;48.836;9.174;2023-09-08T08:23:14;8.18;;;5.47;;
48743;SDS011;34538;48.836;9.174;2023-09-08T08:25:41;9.45;;;5.72;;
48743;SDS011;34538;48.836;9.174;2023-09-08T08:28:08;11.25;;;5.90;;
48743;SDS011;34538;48.836;9.174;2023-09-08T08:30:35;8.05;;;5.57;;
48743;SDS011;34538;48.836;9.174;2023-09-08T08:33:02;8.05;;;5.75;;
48743;SDS011;34538;48.836;9.174;2023-09-08T08:35:29;7.93;;;5.50;;
48743;SDS011;34538;48.836;9.174;2023-09-08T08:37:59;10.52;;;6.25;;
48743;SDS011;34538;48.836;9.174;2023-09-08T08:40:26;9.82;;;5.72;;
48743;SDS011;34538;48.836;9.174;2023-09-08T08:42:54;8.77;;;5.93;;
48743;SDS011;34538;48.836;9.174;2023-09-08T08:45:22;9.20;;;6.07;;
48743;SDS011;34538;48.836;9.174;2023-09-08T08:47:50;13.35;;;6.00;;
48743;SDS011;34538;48.836;9.174;2023-09-08T08:50:18;10.07;;;6.55;;
48743;SDS011;34538;48.836;9.174;2023-09-08T08:52:46;9.27;;;6.53;;
48743;SDS011;34538;48.836;9.174;2023-09-08T08:55:15;8.48;;;5.50;;
48743;SDS011;34538;48.836;9.174;2023-09-08T08:57:42;8.82;;;5.85;;
48743;SDS011;34538;48.836;9.174;2023-09-08T09:00:10;9.32;;;5.90;;
48743;SDS011;34538;48.836;9.174;2023-09-08T09:02:41;10.30;;;5.55;;
48743;SDS011;34538;48.836;9.174;2023-09-08T09:05:10;9.55;;;5.90;;
48743;SDS011;34538;48.836;9.174;2023-09-08T09:07:38;9.55;;;5.50;;
48743;SDS011;34538;48.836;9.174;2023-09-08T09:10:05;9.40;;;5.47;;
48743;SDS011;34538;48.836;9.174;2023-09-08T09:12:34;9.25;;;5.78;;
48743;SDS011;34538;48.836;9.174;2023-09-08T09:15:02;8.13;;;5.13;;
48743;SDS011;34538;48.836;9.174;2023-09-08T09:17:32;10.60;;;5.88;;
48743;SDS011;34538;48.836;9.174;2023-09-08T09:20:12;8.38;;;5.63;;
48743;SDS011;34538;48.836;9.174;2023-09-08T09:22:40;7.43;;;5.03;;
48743;SDS011;34538;48.836;9.174;2023-09-08T09:25:08;9.52;;;5.90;;
48743;SDS011;34538;48.836;9.174;2023-09-08T09:27:36;9.98;;;5.13;;
48743;SDS011;34538;48.836;9.174;2023-09-08T09:30:07;8.73;;;5.10;;
48743;SDS011;34538;48.836;9.174;2023-09-08T09:32:34;9.60;;;5.35;;
48743;SDS011;34538;48.836;9.174;2023-09-08T09:35:01;10.68;;;5.90;;
48743;SDS011;34538;48.836;9.174;2023-09-08T09:37:29;11.35;;;5.00;;
48743;SDS011;34538;48.836;9.174;2023-09-08T09:39:56;8.40;;;5.30;;
48743;SDS011;34538;48.836;9.174;2023-09-08T09:42:23;7.97;;;5.43;;
48743;SDS011;34538;48.836;9.174;2023-09-08T09:44:52;8.32;;;4.70;;
48743;SDS011;34538;48.836;9.174;2023-09-08T09:47:19;7.20;;;4.53;;
48743;SDS011;34538;48.836;9.174;2023-09-08T09:49:46;8.18;;;5.32;;
48743;SDS011;34538;48.836;9.174;2023-09-08T09:52:19;7.65;;;5.10;;
48743;SDS011;34538;48.836;9.174;2023-09-08T09:54:48;10.70;;;5.32;;
48743;SDS011;34538;48.836;9.174;2023-09-08T09:57:16;6.05;;;4.65;;
48743;SDS011;34538;48.836;9.174;2023-09-08T09:59:47;7.05;;;5.18;;
48743;SDS011;34538;48.836;9.174;2023-09-08T10:02:17;6.97;;;4.80;;
48743;SDS011;34538;48.836;9.174;2023-09-08T10:04:45;8.23;;;5.13;;
48743;SDS011;34538;48.836;9.174;2023-09-08T10:07:14;7.43;;;4.80;;
48743;SDS011;34538;48.836;9.174;2023-09-08T10:09:43;6.90;;;4.75;;
48743;SDS011;34538;48.836;9.174;2023-09-08T10:12:10;7.82;;;4.90;;
48743;SDS011;34538;48.836;9.174;2023-09-08T10:14:41;7.85;;;5.00;;
48743;SDS011;34538;48.836;9.174;2023-09-08T10:17:11;8.90;;;5.18;;
48743;SDS011;34538;48.836;9.174;2023-09-08T10:19:44;7.18;;;4.75;;
48743;SDS011;34538;48.836;9.174;2023-09-08T10:22:17;6.82;;;5.18;;
48743;SDS011;34538;48.836;9.174;2023-09-08T10:24:47;7.80;;;5.32;;
48743;SDS011;34538;48.836;9.174;2023-09-08T10:27:16;7.78;;;4.53;;
48743;SDS011;34538;48.836;9.174;2023-09-08T10:29:46;7.55;;;4.88;;
48743;SDS011;34538;48.836;9.174;2023-09-08T10:32:14;5.75;;;4.03;;
48743;SDS011;34538;48.836;9.174;2023-09-08T10:34:44;7.70;;;4.80;;
48743;SDS011;34538;48.836;9.174;2023-09-08T10:37:21;8.00;;;4.72;;
48743;SDS011;34538;48.836;9.174;2023-09-08T10:39:49;6.65;;;4.70;;
48743;SDS011;34538;48.836;9.174;2023-09-08T10:42:20;6.85;;;4.60;;
48743;SDS011;34538;48.836;9.174;2023-09-08T10:44:57;8.45;;;4.70;;
48743;SDS011;34538;48.836;9.174;2023-09-08T10:47:31;7.80;;;4.65;;
48743;SDS011;34538;48.836;9.174;2023-09-08T10:50:03;7.97;;;4.20;;
48743;SDS011;34538;48.836;9.174;2023-09-08T10:52:32;5.83;;;4.40;;
48743;SDS011;34538;48.836;9.174;2023-09-08T10:55:00;6.25;;;4.00;;
48743;SDS011;34538;48.836;9.174;2023-09-08T10:57:28;6.50;;;4.75;;
48743;SDS011;34538;48.836;9.174;2023-09-08T10:59:56;7.93;;;4.30;;
48743;SDS011;34538;48.836;9.174;2023-09-08T11:02:34;10.68;;;4.72;;
48743;SDS011;34538;48.836;9.174;2023-09-08T11:05:05;9.90;;;4.57;;
48743;SDS011;34538;48.836;9.174;2023-09-08T11:07:34;7.25;;;4.93;;
48743;SDS011;34538;48.836;9.174;2023-09-08T11:10:02;5.50;;;4.40;;
48743;SDS011;34538;48.836;9.174;2023-09-08T11:12:30;9.48;;;4.80;;
48743;SDS011;34538;48.836;9.174;2023-09-08T11:14:57;6.47;;;4.63;;
48743;SDS011;34538;48.836;9.174;2023-09-08T11:17:26;6.25;;;4.47;;
48743;SDS011;34538;48.836;9.174;2023-09-08T11:19:54;6.55;;;4.68;;
48743;SDS011;34538;48.836;9.174;2023-09-08T11:22:23;6.13;;;4.60;;
48743;SDS011;34538;48.836;9.174;2023-09-08T11:24:51;6.22;;;4.57;;
48743;SDS011;34538;48.836;9.174;2023-09-08T11:27:22;5.82;;;4.22;;
48743;SDS011;34538;48.836;9.174;2023-09-08T11:29:49;7.28;;;4.88;;
48743;SDS011;34538;48.836;9.174;2023-09-08T11:32:17;12.18;;;4.82;;
48743;SDS011;34538;48.836;9.174;2023-09-08T11:34:43;7.18;;;5.35;;
48743;SDS011;34538;48.836;9.174;2023-09-08T11:37:10;5.88;;;4.50;;
48743;SDS011;34538;48.836;9.174;2023-09-08T11:39:40;7.15;;;4.93;;
48743;SDS011;34538;48.836;9.174;2023-09-08T11:42:08;7.30;;;5.07;;
48743;SDS011;34538;48.836;9.174;2023-09-08T11:44:36;10.27;;;4.82;;
48743;SDS011;34538;48.836;9.174;2023-09-08T11:47:04;12.73;;;5.38;;
48743;SDS011;34538;48.836;9.174;2023-09-08T11:49:34;7.68;;;4.45;;
48743;SDS011;34538;48.836;9.174;2023-09-08T11:52:01;6.68;;;4.68;;
48743;SDS011;34538;48.836;9.174;2023-09-08T11:54:29;7.65;;;4.95;;
48743;SDS011;34538;48.836;9.174;2023-09-08T11:56:58;7.18;;;4.53;;
48743;SDS011;34538;48.836;9.174;2023-09-08T11:59:26;6.35;;;4.80;;
48743;SDS011;34538;48.836;9.174;2023-09-08T12:01:55;9.50;;;4.90;;
48743;SDS011;34538;48.836;9.174;2023-09-08T12:04:22;7.18;;;5.15;;
48743;SDS011;34538;48.836;9.174;2023-09-08T12:06:49;7.78;;;5.22;;
48743;SDS011;34538;48.836;9.174;2023-09-08T12:09:18;7.57;;;4.80;;
48743;SDS011;34538;48.836;9.174;2023-09-08T12:11:47;7.65;;;4.82;;
48743;SDS011;34538;48.836;9.174;2023-09-08T12:14:16;7.70;;;4.82;;
48743;SDS011;34538;48.836;9.174;2023-09-08T12:16:42;9.35;;;4.95;;
48743;SDS011;34538;48.836;9.174;2023-09-08T12:21:56;8.00;;;5.40;;
48743;SDS011;34538;48.836;9.174;2023-09-08T12:24:46;9.35;;;4.88;;
48743;SDS011;34538;48.836;9.174;2023-09-08T12:27:13;9.18;;;4.90;;
48743;SDS011;34538;48.836;9.174;2023-09-08T12:29:42;7.43;;;4.60;;
48743;SDS011;34538;48.836;9.174;2023-09-08T12:32:17;7.47;;;4.70;;
48743;SDS011;34538;48.836;9.174;2023-09-08T12:34:44;6.80;;;4.82;;
48743;SDS011;34538;48.836;9.174;2023-09-08T12:37:11;7.18;;;4.78;;
48743;SDS011;34538;48.836;9.174;2023-09-08T12:39:38;6.95;;;4.63;;
48743;SDS011;34538;48.836;9.174;2023-09-08T12:42:05;6.32;;;4.82;;
48743;SDS011;34538;48.836;9.174;2023-09-08T12:44:32;7.47;;;4.82;;
48743;SDS011;34538;48.836;9.174;2023-09-08T12:47:00;8.02;;;4.70;;
48743;SDS011;34538;48.836;9.174;2023-09-08T12:49:27;6.32;;;4.53;;
48743;SDS011;34538;48.836;9.174;2023-09-08T12:51:54;6.13;;;4.70;;
48743;SDS011;34538;48.836;9.174;2023-09-08T12:54:21;7.72;;;4.28;;
48743;SDS011;34538;48.836;9.174;2023-09-08T12:56:48;7.45;;;4.85;;
48743;SDS011;34538;48.836;9.174;2023-09-08T12:59:16;5.05;;;4.20;;
48743;SDS011;34538;48.836;9.174;2023-09-08T13:01:43;7.05;;;5.00;;
48743;SDS011;34538;48.836;9.174;2023-09-08T13:04:11;8.57;;;4.88;;
48743;SDS011;34538;48.836;9.174;2023-09-08T13:06:38;6.05;;;4.50;;
48743;SDS011;34538;48.836;9.174;2023-09-08T13:09:04;6.50;;;4.75;;
48743;SDS011;34538;48.836;9.174;2023-09-08T13:11:32;7.18;;;4.45;;
48743;SDS011;34538;48.836;9.174;2023-09-08T13:13:59;9.32;;;4.25;;
48743;SDS011;34538;48.836;9.174;2023-09-08T13:16:26;8.38;;;4.10;;
48743;SDS011;34538;48.836;9.174;2023-09-08T13:18:53;5.38;;;4.32;;
48743;SDS011;34538;48.836;9.174;2023-09-08T13:21:21;7.15;;;4.80;;
48743;SDS011;34538;48.836;9.174;2023-09-08T13:23:48;7.55;;;4.63;;
48743;SDS011;34538;48.836;9.174;2023-09-08T13:26:15;8.50;;;4.90;;
48743;SDS011;34538;48.836;9.174;2023-09-08T13:28:42;8.15;;;4.47;;
48743;SDS011;34538;48.836;9.174;2023-09-08T13:31:08;6.70;;;4.18;;
48743;SDS011;34538;48.836;9.174;2023-09-08T13:33:35;5.80;;;4.15;;
48743;SDS011;34538;48.836;9.174;2023-09-08T13:36:02;6.57;;;4.30;;
48743;SDS011;34538;48.836;9.174;2023-09-08T13:38:31;8.13;;;4.32;;
48743;SDS011;34538;48.836;9.174;2023-09-08T13:40:58;6.22;;;4.20;;
48743;SDS011;34538;48.836;9.174;2023-09-08T13:43:24;6.70;;;3.90;;
48743;SDS011;34538;48.836;9.174;2023-09-08T13:45:51;5.22;;;4.20;;
48743;SDS011;34538;48.836;9.174;2023-09-08T13:48:18;8.13;;;4.50;;
48743;SDS011;34538;48.836;9.174;2023-09-08T13:50:45;6.72;;;4.28;;
48743;SDS011;34538;48.836;9.174;2023-09-08T13:53:12;5.70;;;4.57;;
48743;SDS011;34538;48.836;9.174;2023-09-08T13:55:40;6.60;;;4.68;;
48743;SDS011;34538;48.836;9.174;2023-09-08T13:58:08;6.10;;;4.47;;
48743;SDS011;34538;48.836;9.174;2023-09-08T14:00:36;5.57;;;4.45;;
48743;SDS011;34538;48.836;9.174;2023-09-08T14:03:03;5.15;;;4.00;;
48743;SDS011;34538;48.836;9.174;2023-09-08T14:05:30;4.82;;;4.10;;
48743;SDS011;34538;48.836;9.174;2023-09-08T14:07:57;5.68;;;4.30;;
48743;SDS011;34538;48.836;9.174;2023-09-08T14:10:24;7.25;;;4.07;;
48743;SDS011;34538;48.836;9.174;2023-09-08T14:12:53;9.80;;;4.50;;
48743;SDS011;34538;48.836;9.174;2023-09-08T14:15:20;5.28;;;3.83;;
48743;SDS011;34538;48.836;9.174;2023-09-08T14:17:47;5.63;;;4.13;;
48743;SDS011;34538;48.836;9.174;2023-09-08T14:20:14;7.10;;;4.43;;
48743;SDS011;34538;48.836;9.174;2023-09-08T14:22:41;6.07;;;4.00;;
48743;SDS011;34538;48.836;9.174;2023-09-08T14:25:08;6.05;;;4.32;;
48743;SDS011;34538;48.836;9.174;2023-09-08T14:27:35;6.85;;;3.70;;
48743;SDS011;34538;48.836;9.174;2023-09-08T14:30:04;9.15;;;4.22;;
48743;SDS011;34538;48.836;9.174;2023-09-08T14:32:32;6.03;;;4.20;;
48743;SDS011;34538;48.836;9.174;2023-09-08T14:34:59;36.78;;;11.43;;
48743;SDS011;34538;48.836;9.174;2023-09-08T14:37:25;7.10;;;5.00;;
48743;SDS011;34538;48.836;9.174;2023-09-08T14:39:52;7.40;;;4.65;;
48743;SDS011;34538;48.836;9.174;2023-09-08T14:42:19;18.63;;;11.35;;
48743;SDS011;34538;48.836;9.174;2023-09-08T14:44:46;9.45;;;6.03;;
48743;SDS011;34538;48.836;9.174;2023-09-08T14:47:17;9.30;;;6.33;;